Albuquerque, NM (87105)

12:30 AM MDT on July 29, 2016 (GMT -0600)
| | Change Station

Elev -9999 ft 0.00 °N, 0.00 °E | Updated

Partly Cloudy
Partly Cloudy
73 °F
Feels Like 73 °F
N
7
Wind Variable Wind from SSE
Gusts mph

Today
High -- | Low -- °F
--% Chance of Precip.
Yesterday
High -- | Low -- °F
Precip. -- in
Pressure 29.84 in
Visibility 10.0 miles
Clouds Few 20000 ft
Dew Point 49 °F
Humidity 44%
Rainfall --
Snow Depth Not available.
6:14 AM 8:11 PM
Waning Crescent, 25% visible
METAR KABQ 290552Z 12006KT 10SM FEW200 26/08 A3013 RMK AO2 SLP105 T02560078 10328 20256 51005
Pressure 29.84 in
Visibility 10.0 miles
Clouds Few 20000 ft
Dew Point 49 °F
Humidity 44%
Rainfall --
Snow Depth Not available.
6:14 AM 8:11 PM
Waning Crescent, 25% visible
METAR KABQ 290552Z 12006KT 10SM FEW200 26/08 A3013 RMK AO2 SLP105 T02560078 10328 20256 51005

10-Day Weather Forecast

Almanac

Astronomy

Jul. 29, 2016 Rise Set
Actual Time
Civil Twilight
Nautical Twilight
Astronomical Twilight
Moon
Length of Visible Light
Length of Day
Tomorrow will be .
, % of the Moon is Illuminated

Today's Extremes

State Highs State Lows

Community

WunderPhotos

Upload Photos

1,928,299 photos uploaded!

WunderBlog® & News

Nearby

Air Quality

  Air Quality AQ Index Pollutant
Not available.

Snow Depth

Station Depth Elevation

Earthquake Activity

City Distance Mag. Time & Date
Minimum magnitude displayed is 2.5.

Coastal Water Temperatures

Place Temperature

Stations

Nearby Weather Stations

Station Location Temp. Windchill Dew Point Humidity Wind Precip. Elev Updated Type
                   

Watches & Warnings

There are currently no watches in effect.